KNGU/NGU METAR and TAF weather

Enter ICAO airport designator
Station Type Date Time Source
KNGU METAR 2020/07/06 22:59 UTC NOAA

KNGU 062259Z 20006KT 9SM FEW050 SCT300 32/21 A3003 RMK AO2 SLP167 T03220211 $


Station Type Date Time Source
KNGU Decoded METAR 2020/07/06 22:59 UTC NOAA

Norfolk, Naval Air Station, VA, United States (KNGU) 36-56-01N 076-17-45W 8M
Jul 06, 2020 - 06:59 PM EDT / 2020.07.06 2259 UTC
Wind: from the SSW (200 degrees) at 7 MPH (6 KT):0
Visibility: 9 mile(s):0
Sky conditions: partly cloudy
Temperature: 90.0 F (32.2 C)
Heat index: 95.5 F (35.3 C):1
Dew Point: 70.0 F (21.1 C)
Relative Humidity: 52%
Pressure (altimeter): 30.03 in. Hg (1016 hPa)
ob: KNGU 062259Z 20006KT 9SM FEW050 SCT300 32/21 A3003 RMK AO2 SLP167 T03220211
cycle: 23

Station Type Date Time Source
KNGU TAF 2020/07/06 23:03 UTC NOAA

TAF KNGU 0623/0723 21007KT 9999 FEW050 SCT300 QNH2998INS
FM071600 13010KT 9999 SCT050 BKN260 QNH2997INS T23/0709Z T33/0719Z FN20067

Example: see airport list